Time;durP1;ratioP1;P1;durP2;ratioP2;P2;SDS_P1;SDS_P2;PMS_P1;PMS_P2;Temp;Humidity;BMP_temperature;BMP_pressure;BME280_temperature;BME280_humidity;BME280_pressure;Samples;Min_cycle;Max_cycle;Signal;HPM_P1;HPM_P2
2024/04/07 00:00:48;;;;;;;7.07;0.98;;;;;;;11.85;66.74;98673.47;4998892;28;20073;-51
2024/04/07 00:03:17;;;;;;;6.32;0.93;;;;;;;11.76;67.11;98665.03;4991111;28;20073;-49
2024/04/07 00:05:44;;;;;;;7.03;1.35;;;;;;;11.78;66.83;98677.97;4986596;28;20052;-51
2024/04/07 00:08:10;;;;;;;4.43;1.15;;;;;;;11.63;66.08;98684.47;4986294;28;20396;-50
2024/04/07 00:10:37;;;;;;;2.67;0.88;;;;;;;11.67;64.65;98686.06;4998638;28;20058;-49
2024/04/07 00:13:04;;;;;;;6.10;1.98;;;;;;;11.74;65.54;98687.59;5002426;28;20053;-47
2024/04/07 00:15:30;;;;;;;9.73;0.95;;;;;;;11.61;65.34;98681.91;4992457;28;20482;-49
2024/04/07 00:17:57;;;;;;;4.00;0.55;;;;;;;11.60;64.68;98674.16;5005529;28;20061;-50
2024/04/07 00:20:23;;;;;;;2.13;0.50;;;;;;;11.57;65.05;98669.94;5021228;28;20108;-50
2024/04/07 00:22:49;;;;;;;4.75;1.02;;;;;;;11.42;65.67;98676.41;5000727;28;20057;-51
2024/04/07 00:25:19;;;;;;;4.88;1.75;;;;;;;11.46;65.83;98678.03;4998666;28;20050;-48
2024/04/07 00:27:45;;;;;;;7.30;1.02;;;;;;;11.34;65.04;98678.38;5015442;28;20511;-53
2024/04/07 00:30:11;;;;;;;4.40;1.20;;;;;;;11.27;65.28;98672.50;5000354;28;20418;-49
2024/04/07 00:32:37;;;;;;;3.78;0.95;;;;;;;11.43;65.01;98691.06;4995917;28;20061;-51
2024/04/07 00:35:05;;;;;;;6.38;1.25;;;;;;;11.34;66.12;98696.53;5009489;28;20054;-48
2024/04/07 00:37:31;;;;;;;3.17;0.70;;;;;;;11.28;66.35;98693.19;5001727;28;20049;-51
2024/04/07 00:39:59;;;;;;;5.50;1.27;;;;;;;11.14;66.58;98708.25;4999343;28;20046;-51
2024/04/07 00:42:25;;;;;;;8.48;2.25;;;;;;;11.19;65.85;98685.69;4988695;28;20061;-49
2024/04/07 00:44:51;;;;;;;10.43;1.33;;;;;;;11.24;65.84;98693.31;5003171;28;20057;-52
2024/04/07 00:47:18;;;;;;;2.80;0.82;;;;;;;11.17;66.61;98693.50;4998016;28;20156;-50
2024/04/07 00:49:47;;;;;;;6.63;1.05;;;;;;;11.24;67.29;98693.31;4999533;28;20049;-52
2024/04/07 00:52:13;;;;;;;4.20;1.08;;;;;;;11.22;66.22;98695.97;4997830;28;20046;-49
2024/04/07 00:54:41;;;;;;;8.18;0.93;;;;;;;11.27;66.37;98699.28;4989128;28;20050;-52
2024/04/07 00:57:10;;;;;;;7.15;1.08;;;;;;;11.14;66.98;98726.41;4994971;28;20062;-50
2024/04/07 00:59:36;;;;;;;2.55;0.90;;;;;;;11.28;66.72;98695.78;4990204;28;20062;-49
2024/04/07 01:02:04;;;;;;;7.15;1.48;;;;;;;11.37;65.53;98699.00;4992558;28;20054;-52
2024/04/07 01:04:29;;;;;;;2.08;0.82;;;;;;;11.25;66.60;98726.97;5002006;28;20058;-52
2024/04/07 01:06:55;;;;;;;7.63;1.95;;;;;;;11.19;66.44;98690.84;5005720;28;20061;-48
2024/04/07 01:09:22;;;;;;;4.32;0.80;;;;;;;11.21;65.74;98704.59;4996402;28;20050;-52
2024/04/07 01:11:47;;;;;;;3.10;0.50;;;;;;;11.35;66.68;98704.22;4986131;28;20517;-55
2024/04/07 01:14:13;;;;;;;4.63;1.05;;;;;;;11.27;66.68;98694.09;4995641;28;20045;-52
2024/04/07 01:16:39;;;;;;;4.85;1.00;;;;;;;11.35;66.45;98690.44;4992351;28;20042;-52
2024/04/07 01:19:04;;;;;;;7.70;1.30;;;;;;;11.34;66.91;98688.75;4996776;28;20511;-49
2024/04/07 01:21:30;;;;;;;6.35;1.40;;;;;;;11.38;66.03;98714.53;5011736;28;20499;-54
2024/04/07 01:23:56;;;;;;;4.38;0.82;;;;;;;11.43;66.21;98704.03;4996882;28;20533;-49
2024/04/07 01:26:24;;;;;;;5.93;1.02;;;;;;;11.34;66.17;98701.72;4994458;28;20738;-49
2024/04/07 01:28:49;;;;;;;7.88;1.08;;;;;;;11.36;65.54;98712.88;4996002;28;20038;-50
2024/04/07 01:31:15;;;;;;;7.60;1.27;;;;;;;11.36;65.43;98708.53;4997938;28;20826;-49
2024/04/07 01:33:41;;;;;;;5.22;1.50;;;;;;;11.25;65.64;98716.59;4998828;28;20053;-50
2024/04/07 01:36:06;;;;;;;7.95;1.35;;;;;;;11.43;64.78;98715.25;4997770;28;20133;-48
2024/04/07 01:38:32;;;;;;;12.43;0.90;;;;;;;11.28;65.69;98726.88;4996231;28;20050;-52
2024/04/07 01:40:58;;;;;;;5.30;0.90;;;;;;;11.36;66.20;98728.41;4994552;28;20105;-52
2024/04/07 01:43:23;;;;;;;6.45;1.05;;;;;;;11.35;65.22;98729.31;5001335;28;20058;-50
2024/04/07 01:45:49;;;;;;;6.80;0.75;;;;;;;11.25;65.82;98737.31;5005550;28;20042;-53
2024/04/07 01:48:14;;;;;;;3.20;0.80;;;;;;;11.27;64.69;98745.94;4997202;28;20133;-50
2024/04/07 01:50:40;;;;;;;2.22;0.60;;;;;;;11.14;65.25;98735.03;4992034;28;20058;-53
2024/04/07 01:53:06;;;;;;;7.43;1.20;;;;;;;11.19;65.34;98737.50;5003848;28;20050;-51
2024/04/07 01:55:31;;;;;;;4.75;1.17;;;;;;;11.07;64.58;98755.97;5001236;28;20574;-51
2024/04/07 01:57:57;;;;;;;8.40;0.82;;;;;;;11.04;65.15;98760.34;4998733;28;20045;-51
2024/04/07 02:00:23;;;;;;;9.65;1.48;;;;;;;11.10;64.40;98766.22;5003189;28;20053;-52
2024/04/07 02:02:49;;;;;;;4.63;1.00;;;;;;;10.93;65.21;98777.88;4996511;28;20124;-51
2024/04/07 02:05:14;;;;;;;8.15;1.00;;;;;;;10.92;65.06;98768.41;4993117;28;20050;-51
2024/04/07 02:07:40;;;;;;;5.07;1.50;;;;;;;10.99;64.26;98766.50;5012004;28;20092;-50
2024/04/07 02:10:08;;;;;;;7.20;0.98;;;;;;;10.96;64.40;98785.59;4990354;28;20061;-51
2024/04/07 02:12:34;;;;;;;6.13;1.25;;;;;;;10.85;64.67;98779.81;4996939;28;20053;-50
2024/04/07 02:15:00;;;;;;;8.63;1.90;;;;;;;10.88;65.19;98779.75;4994754;28;20265;-51
2024/04/07 02:17:26;;;;;;;4.70;1.20;;;;;;;10.86;64.56;98789.28;5013189;28;20408;-48
2024/04/07 02:19:52;;;;;;;4.50;1.40;;;;;;;10.78;65.74;98798.06;4995378;28;20055;-48
2024/04/07 02:22:18;;;;;;;8.00;1.35;;;;;;;10.78;65.86;98790.31;4995618;28;20085;-50
2024/04/07 02:24:44;;;;;;;6.03;1.08;;;;;;;10.70;66.13;98792.22;4997029;28;20046;-52
2024/04/07 02:27:10;;;;;;;4.10;1.13;;;;;;;10.63;65.42;98811.38;4989771;28;20504;-48
2024/04/07 02:29:36;;;;;;;4.55;0.85;;;;;;;10.61;66.36;98811.41;4978289;28;20046;-48
2024/04/07 02:32:02;;;;;;;2.42;0.43;;;;;;;10.55;66.51;98814.16;5004200;28;20060;-53
2024/04/07 02:34:27;;;;;;;3.83;0.90;;;;;;;10.41;66.69;98812.69;5000828;28;20133;-52
2024/04/07 02:36:53;;;;;;;9.40;2.03;;;;;;;10.41;66.45;98817.88;5005971;28;20052;-51
2024/04/07 02:39:19;;;;;;;4.57;1.00;;;;;;;10.38;67.26;98823.13;5000115;28;20104;-52
2024/04/07 02:41:45;;;;;;;2.35;0.70;;;;;;;10.36;67.74;98831.78;5000133;28;20069;-51
2024/04/07 02:44:11;;;;;;;3.47;1.10;;;;;;;10.41;67.29;98833.38;4997739;28;20473;-50
2024/04/07 02:49:22;;;;;;;3.03;1.10;;;;;;;10.23;67.73;98831.22;4983877;28;20085;-51
2024/04/07 02:51:48;;;;;;;4.78;1.02;;;;;;;10.22;68.24;98832.94;4991981;28;20089;-51
2024/04/07 02:54:14;;;;;;;6.93;1.30;;;;;;;10.33;68.13;98839.66;5003789;28;20741;-55
2024/04/07 02:56:39;;;;;;;7.38;1.08;;;;;;;10.33;68.07;98844.81;4993502;28;20133;-52
2024/04/07 02:59:05;;;;;;;5.95;0.80;;;;;;;10.32;68.00;98843.09;5008095;28;20065;-49
2024/04/07 03:01:31;;;;;;;6.85;1.00;;;;;;;10.34;68.60;98841.34;4997076;28;20046;-50
2024/04/07 03:03:56;;;;;;;6.38;0.63;;;;;;;10.37;68.90;98841.28;5005389;28;20056;-52
2024/04/07 03:06:22;;;;;;;3.33;0.60;;;;;;;10.32;69.11;98832.75;4998060;28;20042;-52
2024/04/07 03:08:49;;;;;;;5.60;1.10;;;;;;;10.44;68.76;98832.50;5000416;28;20050;-50
2024/04/07 03:11:14;;;;;;;4.20;0.55;;;;;;;10.38;69.34;98827.44;5001629;28;20153;-53
2024/04/07 03:13:40;;;;;;;7.97;1.48;;;;;;;10.39;69.40;98835.19;4990536;28;20054;-47
2024/04/07 03:16:10;;;;;;;4.25;1.17;;;;;;;10.33;69.73;98850.00;4992936;28;20542;-52
2024/04/07 03:18:36;;;;;;;4.18;2.22;;;;;;;10.31;70.95;98838.81;5019180;28;20765;-52
2024/04/07 03:21:03;;;;;;;7.07;0.93;;;;;;;10.31;70.43;98838.81;5000639;28;20078;-52
2024/04/07 03:23:30;;;;;;;6.72;0.70;;;;;;;10.32;70.85;98827.56;4993621;28;20069;-49
2024/04/07 03:25:55;;;;;;;6.35;1.10;;;;;;;10.20;71.71;98834.69;4998817;28;20060;-51
2024/04/07 03:28:21;;;;;;;5.30;1.38;;;;;;;10.20;71.23;98845.06;4994935;28;20050;-51
2024/04/07 03:30:47;;;;;;;6.50;1.40;;;;;;;10.21;71.66;98840.75;4992086;28;20427;-50
2024/04/07 03:33:12;;;;;;;4.43;0.90;;;;;;;10.22;71.83;98851.06;5013547;28;20129;-51
2024/04/07 03:35:38;;;;;;;6.18;1.20;;;;;;;10.15;71.99;98847.75;4997493;28;20057;-48
2024/04/07 03:38:04;;;;;;;8.88;1.58;;;;;;;10.22;71.40;98843.28;4996608;28;20570;-50
2024/04/07 03:40:30;;;;;;;9.20;0.80;;;;;;;10.12;71.75;98839.19;4997233;28;20046;-53
2024/04/07 03:42:55;;;;;;;8.10;1.08;;;;;;;10.19;71.04;98838.19;4995586;28;20411;-50
2024/04/07 03:45:21;;;;;;;6.88;1.30;;;;;;;10.12;71.50;98836.59;4997361;28;20057;-52
2024/04/07 03:47:48;;;;;;;6.40;1.05;;;;;;;10.07;71.65;98833.25;5004553;28;20717;-52
2024/04/07 03:50:14;;;;;;;7.90;0.68;;;;;;;10.13;70.88;98840.88;5002417;28;20054;-50
2024/04/07 03:52:40;;;;;;;6.60;1.48;;;;;;;10.05;71.91;98842.78;4992558;28;20042;-49
2024/04/07 03:55:06;;;;;;;11.20;1.50;;;;;;;10.07;71.43;98848.78;5004719;28;20262;-51
2024/04/07 03:57:32;;;;;;;3.05;1.02;;;;;;;9.99;71.99;98857.53;5007138;28;20054;-52
2024/04/07 03:59:58;;;;;;;6.63;1.48;;;;;;;9.98;71.94;98842.06;4993043;28;20050;-52
2024/04/07 04:02:29;;;;;;;6.35;2.40;;;;;;;9.87;71.33;98831.94;5000704;28;20459;-51
2024/04/07 04:04:56;;;;;;;3.70;1.30;;;;;;;9.84;71.60;98837.16;4990512;28;20057;-50
2024/04/07 04:07:22;;;;;;;5.82;0.93;;;;;;;9.93;71.32;98843.88;4988447;28;20046;-51
2024/04/07 04:09:51;;;;;;;4.18;0.88;;;;;;;9.80;70.92;98844.13;4990488;28;20050;-51
2024/04/07 04:12:16;;;;;;;10.82;1.27;;;;;;;9.74;70.92;98839.94;4997200;28;20602;-50
2024/04/07 04:14:42;;;;;;;5.65;1.45;;;;;;;9.76;70.39;98840.72;4994061;28;20101;-48
2024/04/07 04:17:08;;;;;;;5.22;0.65;;;;;;;9.76;70.08;98851.06;5021994;28;20674;-47
2024/04/07 04:19:33;;;;;;;5.93;1.20;;;;;;;9.76;69.60;98851.06;5000748;28;20503;-53
2024/04/07 04:21:59;;;;;;;6.05;1.17;;;;;;;9.75;69.45;98854.56;4998263;28;20729;-51
2024/04/07 04:24:25;;;;;;;6.72;1.05;;;;;;;9.75;69.79;98844.22;4999675;28;20438;-50
2024/04/07 04:26:50;;;;;;;2.65;0.80;;;;;;;9.77;69.42;98852.78;4995248;28;20852;-48
2024/04/07 04:29:16;;;;;;;5.63;0.77;;;;;;;9.73;69.83;98858.88;5004917;28;20065;-49
2024/04/07 04:31:42;;;;;;;14.15;1.77;;;;;;;9.66;69.29;98861.63;5010837;28;20041;-49
2024/04/07 04:34:07;;;;;;;10.55;1.20;;;;;;;9.71;69.76;98863.25;5004536;28;20046;-48
2024/04/07 04:36:34;;;;;;;7.68;1.02;;;;;;;9.68;69.84;98858.13;4998435;28;20046;-48
2024/04/07 04:39:00;;;;;;;6.43;0.77;;;;;;;9.64;69.72;98861.66;5002130;28;20033;-48
2024/04/07 04:41:25;;;;;;;3.40;1.15;;;;;;;9.68;69.70;98865.03;4998709;28;20767;-49
2024/04/07 04:43:51;;;;;;;6.95;0.50;;;;;;;9.68;69.19;98873.63;4992986;28;20050;-51
2024/04/07 04:46:16;;;;;;;11.77;3.05;;;;;;;9.67;69.29;98871.94;5000479;28;21031;-53
2024/04/07 04:48:43;;;;;;;3.78;1.20;;;;;;;9.60;69.82;98876.34;4994898;28;20089;-49
2024/04/07 04:51:09;;;;;;;4.63;0.95;;;;;;;9.57;70.56;98875.56;4996968;28;20058;-51
2024/04/07 04:53:35;;;;;;;14.63;1.13;;;;;;;9.63;70.14;98876.28;5003642;28;20057;-51
2024/04/07 04:56:02;;;;;;;7.07;1.30;;;;;;;9.56;70.79;98868.69;4997913;28;20089;-53
2024/04/07 04:58:29;;;;;;;7.53;1.02;;;;;;;9.48;71.36;98877.44;4984509;28;20046;-54
2024/04/07 05:00:56;;;;;;;11.10;0.82;;;;;;;9.57;71.08;98873.84;5016386;28;20057;-50
2024/04/07 05:03:21;;;;;;;12.77;1.55;;;;;;;9.62;70.78;98878.91;4995643;28;20057;-50
2024/04/07 05:05:47;;;;;;;4.93;1.80;;;;;;;9.56;70.63;98873.88;4990309;28;20049;-50
2024/04/07 05:08:14;;;;;;;3.45;1.17;;;;;;;9.50;71.76;98883.41;5010591;28;20129;-50
2024/04/07 05:10:40;;;;;;;9.85;1.67;;;;;;;9.48;71.92;98869.69;4996042;28;20076;-50
2024/04/07 05:13:05;;;;;;;10.85;2.28;;;;;;;9.50;72.82;98865.31;5003687;28;20152;-51
2024/04/07 05:15:31;;;;;;;7.35;1.05;;;;;;;9.45;72.54;98867.13;5010486;28;20128;-49
2024/04/07 05:17:56;;;;;;;12.30;1.80;;;;;;;9.50;72.30;98867.91;4998483;28;20169;-50
2024/04/07 05:20:22;;;;;;;10.00;1.77;;;;;;;9.56;71.70;98887.63;4999949;28;20060;-50
2024/04/07 05:22:51;;;;;;;5.22;1.33;;;;;;;9.47;72.14;98880.91;5013734;28;20490;-51
2024/04/07 05:25:16;;;;;;;10.82;1.00;;;;;;;9.57;71.42;98884.19;4982310;28;20411;-49
2024/04/07 05:27:42;;;;;;;10.55;1.48;;;;;;;9.55;71.54;98878.16;4995656;28;20045;-59
2024/04/07 05:30:08;;;;;;;3.28;0.90;;;;;;;9.51;71.38;98887.72;4996334;28;20054;-51
2024/04/07 05:32:34;;;;;;;6.32;1.70;;;;;;;9.51;71.49;98892.91;4987072;28;20057;-51
2024/04/07 05:35:00;;;;;;;6.53;1.10;;;;;;;9.55;71.36;98892.84;4982518;28;20097;-49
2024/04/07 05:37:27;;;;;;;8.15;1.13;;;;;;;9.51;71.57;98897.19;4998269;28;20499;-52
2024/04/07 05:39:52;;;;;;;6.80;1.00;;;;;;;9.52;71.21;98904.94;5014733;28;20092;-52
2024/04/07 05:42:18;;;;;;;8.75;1.63;;;;;;;9.57;70.81;98896.25;5000665;28;20042;-50
2024/04/07 05:44:46;;;;;;;7.47;1.75;;;;;;;9.64;71.24;98908.19;4995489;28;20574;-49
2024/04/07 05:47:14;;;;;;;5.00;1.38;;;;;;;9.64;71.31;98910.78;4992966;28;20055;-49
2024/04/07 05:49:39;;;;;;;8.82;0.93;;;;;;;9.69;71.21;98901.19;4998295;28;20529;-49
2024/04/07 05:52:05;;;;;;;7.75;0.90;;;;;;;9.66;71.20;98898.66;4986553;28;20050;-49
2024/04/07 05:54:31;;;;;;;6.25;1.60;;;;;;;9.70;70.59;98918.44;4996924;28;20086;-49
2024/04/07 05:56:57;;;;;;;6.93;1.83;;;;;;;9.71;71.59;98904.63;5010810;28;20054;-50
2024/04/07 05:59:24;;;;;;;6.22;0.98;;;;;;;9.75;71.12;98901.09;4999263;28;20060;-50
2024/04/07 06:01:50;;;;;;;7.82;1.42;;;;;;;9.74;70.98;98903.72;4992357;28;20101;-53
2024/04/07 06:04:16;;;;;;;6.03;1.23;;;;;;;9.82;70.78;98911.31;4980987;28;20053;-51
2024/04/07 06:06:41;;;;;;;10.52;1.20;;;;;;;9.88;70.75;98900.88;4999488;28;20121;-50
2024/04/07 06:09:07;;;;;;;10.43;1.75;;;;;;;9.87;70.96;98905.19;4994296;28;20125;-53
2024/04/07 06:11:33;;;;;;;8.65;1.33;;;;;;;9.99;70.63;98908.41;5002008;28;20058;-50
2024/04/07 06:13:59;;;;;;;13.23;2.13;;;;;;;10.01;69.85;98902.34;4999194;28;20054;-51
2024/04/07 06:16:24;;;;;;;4.60;0.82;;;;;;;10.16;69.92;98905.50;5005435;28;20483;-51
2024/04/07 06:18:51;;;;;;;7.43;1.50;;;;;;;10.14;69.77;98899.53;4998790;28;20388;-50
2024/04/07 06:21:19;;;;;;;10.95;1.45;;;;;;;10.19;69.62;98920.97;4985616;28;20062;-52
2024/04/07 06:23:44;;;;;;;12.43;1.77;;;;;;;10.32;69.08;98910.38;5002589;28;20494;-53
2024/04/07 06:26:10;;;;;;;4.45;1.23;;;;;;;10.29;69.10;98901.81;4999574;28;20115;-51
2024/04/07 06:28:36;;;;;;;7.45;1.20;;;;;;;10.39;68.48;98899.03;5016465;28;20717;-52
2024/04/07 06:31:03;;;;;;;14.07;1.88;;;;;;;10.38;68.71;98920.63;4998007;28;20054;-51
2024/04/07 06:33:29;;;;;;;4.53;0.70;;;;;;;10.44;68.75;98920.50;4981351;28;20049;-50
2024/04/07 06:35:56;;;;;;;5.57;1.13;;;;;;;10.49;67.80;98908.34;5005712;28;20057;-48
2024/04/07 06:38:22;;;;;;;3.80;0.98;;;;;;;10.60;68.30;98925.41;5005876;28;20109;-50
2024/04/07 06:40:47;;;;;;;7.53;1.45;;;;;;;10.61;67.30;98922.75;5001793;28;20050;-50
2024/04/07 06:43:13;;;;;;;8.70;1.10;;;;;;;10.72;67.34;98924.28;5004743;28;20796;-49
2024/04/07 06:45:39;;;;;;;4.55;0.75;;;;;;;10.73;68.48;98911.28;4983527;28;20583;-54
2024/04/07 06:48:05;;;;;;;7.75;1.33;;;;;;;10.72;67.80;98913.91;5001757;28;20148;-52
2024/04/07 06:50:32;;;;;;;5.68;1.40;;;;;;;10.78;68.09;98906.84;5003291;28;20112;-52
2024/04/07 06:52:58;;;;;;;4.95;0.88;;;;;;;10.82;68.29;98919.75;4994974;28;20069;-55
2024/04/07 06:55:23;;;;;;;10.88;1.23;;;;;;;10.88;68.46;98915.28;4995344;28;20042;-50
2024/04/07 06:57:49;;;;;;;9.85;1.08;;;;;;;10.89;68.88;98932.53;4995477;28;20525;-51
2024/04/07 07:00:15;;;;;;;11.52;1.25;;;;;;;10.92;68.18;98931.63;4990807;28;20054;-52
2024/04/07 07:02:41;;;;;;;7.20;0.95;;;;;;;10.95;68.89;98934.16;4986294;28;20061;-52
2024/04/07 07:05:08;;;;;;;4.07;2.35;;;;;;;10.98;68.17;98941.81;4993463;28;20850;-49
2024/04/07 07:07:34;;;;;;;10.38;1.23;;;;;;;11.05;68.43;98932.19;4980526;28;20466;-51
2024/04/07 07:09:59;;;;;;;9.45;1.77;;;;;;;11.00;67.12;98934.88;4998839;28;20140;-51
2024/04/07 07:12:25;;;;;;;11.10;2.13;;;;;;;11.11;67.74;98931.22;4992255;28;20057;-51
2024/04/07 07:14:52;;;;;;;5.70;0.93;;;;;;;11.18;66.65;98943.97;4996456;28;20058;-53
2024/04/07 07:17:17;;;;;;;6.13;2.45;;;;;;;11.22;67.95;98924.03;4992046;28;20562;-54
2024/04/07 07:19:43;;;;;;;8.02;1.27;;;;;;;11.78;67.37;98938.22;4991102;28;20065;-51
2024/04/07 07:22:09;;;;;;;9.23;0.77;;;;;;;12.40;65.36;98945.31;5007176;28;20399;-52
2024/04/07 07:24:35;;;;;;;8.85;1.30;;;;;;;12.99;64.16;98953.97;4999165;28;20443;-54
2024/04/07 07:27:00;;;;;;;13.25;1.60;;;;;;;13.48;62.60;98967.22;4993098;28;20078;-53
2024/04/07 07:29:26;;;;;;;11.13;1.13;;;;;;;13.57;60.76;98963.47;5004979;28;20061;-53
2024/04/07 07:31:56;;;;;;;6.40;1.42;;;;;;;13.90;61.58;98980.63;4989615;28;20124;-48
2024/04/07 07:34:23;;;;;;;6.45;1.02;;;;;;;14.12;59.91;98982.50;4995502;28;20108;-50
2024/04/07 07:36:49;;;;;;;7.00;1.17;;;;;;;14.19;59.28;98977.94;5010240;28;21484;-49
2024/04/07 07:39:14;;;;;;;5.57;0.82;;;;;;;14.43;59.13;98996.19;4999064;28;20674;-51
2024/04/07 07:41:40;;;;;;;4.60;1.40;;;;;;;14.83;59.07;98968.69;4982590;28;20535;-50
2024/04/07 07:44:06;;;;;;;6.82;1.55;;;;;;;15.04;57.49;98981.84;5005820;28;20069;-49
2024/04/07 07:46:32;;;;;;;8.00;1.20;;;;;;;15.23;56.58;98999.41;4990297;28;20406;-48
2024/04/07 07:48:57;;;;;;;10.50;1.30;;;;;;;15.42;56.55;98971.66;4990868;28;20046;-52
2024/04/07 07:51:24;;;;;;;8.88;2.45;;;;;;;15.59;55.66;98983.19;4991052;28;20054;-50
2024/04/07 07:53:50;;;;;;;9.05;1.27;;;;;;;15.70;55.68;98987.13;4991965;28;20050;-50
2024/04/07 07:56:16;;;;;;;3.00;1.27;;;;;;;15.99;55.04;98996.38;5010609;28;20054;-50
2024/04/07 07:58:42;;;;;;;5.50;1.20;;;;;;;16.15;54.83;98996.56;4994261;28;20184;-48
2024/04/07 08:01:08;;;;;;;6.63;1.08;;;;;;;16.13;53.88;98987.94;4991509;28;20058;-48
2024/04/07 08:03:35;;;;;;;7.13;2.40;;;;;;;15.73;54.30;99010.47;4998726;28;20099;-54
2024/04/07 08:06:01;;;;;;;9.98;1.48;;;;;;;15.91;55.24;98991.44;4989139;28;20125;-54
2024/04/07 08:08:27;;;;;;;6.72;1.15;;;;;;;16.10;53.81;98995.91;4990028;28;20254;-58
2024/04/07 08:10:53;;;;;;;5.72;1.38;;;;;;;16.65;54.57;99015.31;5000964;28;20061;-51
2024/04/07 08:13:18;;;;;;;5.75;1.38;;;;;;;16.85;52.87;99010.97;4990963;28;20045;-51
2024/04/07 08:15:45;;;;;;;7.60;1.40;;;;;;;16.70;53.10;99002.91;4994715;28;20050;-53
2024/04/07 08:18:11;;;;;;;9.20;1.63;;;;;;;17.06;53.52;99008.31;4986863;28;20108;-55
2024/04/07 08:20:37;;;;;;;7.25;2.17;;;;;;;16.88;52.98;99016.06;4992932;28;20058;-53
2024/04/07 08:23:03;;;;;;;4.75;1.27;;;;;;;16.75;53.03;99004.47;4984293;28;20062;-52
2024/04/07 08:25:29;;;;;;;7.50;1.30;;;;;;;16.89;53.10;99025.59;4992564;28;20589;-52
2024/04/07 08:27:54;;;;;;;6.00;1.00;;;;;;;17.13;53.41;99014.97;4987944;28;20050;-50
2024/04/07 08:30:20;;;;;;;11.88;1.60;;;;;;;17.25;52.36;99037.06;5004679;28;20076;-50
2024/04/07 08:32:46;;;;;;;5.25;1.60;;;;;;;17.30;52.75;99026.41;5006520;28;20058;-52
2024/04/07 08:35:12;;;;;;;8.60;1.27;;;;;;;17.32;52.66;99003.63;4995693;28;20542;-52
2024/04/07 08:37:39;;;;;;;9.57;1.67;;;;;;;17.29;52.63;99003.78;5001305;28;20525;-52
2024/04/07 08:40:06;;;;;;;6.70;0.90;;;;;;;17.33;52.20;99028.88;4978050;28;20053;-53
2024/04/07 08:42:32;;;;;;;7.93;2.03;;;;;;;16.73;52.94;99016.75;4976396;28;20517;-51
2024/04/07 08:45:02;;;;;;;12.43;1.95;;;;;;;17.05;54.58;99011.81;4999972;28;20061;-53
2024/04/07 08:47:28;;;;;;;;;;;;;;;17.50;53.31;99016.75;4995313;28;20046;-53
2024/04/07 08:49:55;;;;;;;4.90;1.40;;;;;;;17.69;51.95;98999.22;4999052;28;19932;-53
2024/04/07 08:52:22;;;;;;;6.53;1.50;;;;;;;17.31;51.87;99039.41;5002545;28;20124;-49
2024/04/07 08:54:48;;;;;;;3.80;1.15;;;;;;;16.58;53.46;99029.56;4991252;28;20050;-52
2024/04/07 08:57:14;;;;;;;4.68;1.35;;;;;;;16.08;53.99;99026.50;4973988;28;20053;-53
2024/04/07 08:59:41;;;;;;;7.03;1.38;;;;;;;15.87;54.75;99018.59;4991383;28;20053;-53
2024/04/07 09:02:12;;;;;;;3.88;1.40;;;;;;;15.59;55.39;99024.94;5008366;28;20068;-54
2024/04/07 09:04:38;;;;;;;8.88;1.42;;;;;;;15.52;56.12;99029.56;4979453;28;20061;-50
2024/04/07 09:07:04;;;;;;;7.95;1.30;;;;;;;15.40;56.52;99019.59;4993474;28;20050;-53
2024/04/07 09:09:30;;;;;;;4.60;0.70;;;;;;;15.31;56.31;99057.34;4980878;28;20049;-54
2024/04/07 09:11:56;;;;;;;7.65;1.40;;;;;;;15.23;56.89;99038.53;4997189;28;20050;-50
2024/04/07 09:14:25;;;;;;;7.95;1.85;;;;;;;15.06;57.67;99026.94;4996379;28;20396;-50
2024/04/07 09:17:04;;;;;;;6.85;1.30;;;;;;;14.71;57.62;99037.75;5007775;28;20050;-50
2024/04/07 09:19:32;;;;;;;6.88;1.30;;;;;;;14.77;58.13;99034.94;4997599;28;20046;-53
2024/04/07 09:21:58;;;;;;;9.07;1.38;;;;;;;14.86;58.15;99036.38;5004190;28;20696;-55
2024/04/07 09:24:25;;;;;;;5.78;0.90;;;;;;;14.83;58.00;99052.13;4991644;28;20054;-51
2024/04/07 09:26:53;;;;;;;6.97;1.13;;;;;;;14.90;58.54;99048.38;4984152;28;20754;-55
2024/04/07 09:29:18;;;;;;;4.60;0.90;;;;;;;14.83;58.38;99046.91;4983209;28;20061;-52
2024/04/07 09:31:44;;;;;;;5.13;1.40;;;;;;;14.65;59.23;99058.81;5001808;28;20045;-53
2024/04/07 09:34:10;;;;;;;4.18;1.13;;;;;;;14.62;59.47;99044.16;4997688;28;20084;-53
2024/04/07 09:36:36;;;;;;;4.60;0.90;;;;;;;14.79;59.26;99063.56;4983415;28;20216;-53
2024/04/07 09:39:03;;;;;;;9.05;1.20;;;;;;;15.13;59.92;99044.06;4997125;28;20080;-54
2024/04/07 09:41:30;;;;;;;3.97;0.90;;;;;;;15.50;59.33;99040.97;4999059;28;20054;-53
2024/04/07 09:43:59;;;;;;;7.53;1.20;;;;;;;15.74;58.19;99053.94;5000433;28;20050;-55
2024/04/07 09:46:27;;;;;;;6.15;1.40;;;;;;;15.82;58.50;99046.66;5011689;28;20034;-49
2024/04/07 09:48:58;;;;;;;4.88;1.38;;;;;;;15.81;57.85;99047.56;4998637;28;20049;-50
2024/04/07 09:51:30;;;;;;;7.53;1.77;;;;;;;15.84;58.40;99057.03;5012022;28;20041;-53
2024/04/07 09:54:13;;;;;;;6.95;1.13;;;;;;;15.76;58.03;99041.66;4999403;28;20573;-54
2024/04/07 09:56:41;;;;;;;9.05;1.48;;;;;;;15.75;57.66;99045.19;4999449;28;20046;-51
2024/04/07 09:59:08;;;;;;;9.35;1.63;;;;;;;15.59;58.02;99044.94;4996302;28;20455;-53
2024/04/07 10:01:34;;;;;;;6.55;1.25;;;;;;;15.66;58.78;99047.28;4993796;28;20423;-52
2024/04/07 10:04:01;;;;;;;9.60;1.83;;;;;;;15.66;58.75;99042.06;5005353;28;20045;-54
2024/04/07 10:06:29;;;;;;;5.00;1.13;;;;;;;15.97;59.29;99057.41;4996731;28;20046;-50
2024/04/07 10:08:56;;;;;;;10.88;1.77;;;;;;;15.94;58.95;99050.50;4987469;28;20050;-55
2024/04/07 10:11:21;;;;;;;11.55;1.65;;;;;;;16.04;58.80;99051.88;4996742;28;20054;-50
2024/04/07 10:13:48;;;;;;;8.57;1.73;;;;;;;16.06;58.06;99057.03;4994014;28;20868;-51
2024/04/07 10:16:13;;;;;;;3.13;2.42;;;;;;;16.08;58.25;99052.59;4992416;28;20046;-52
2024/04/07 10:18:42;;;;;;;6.85;1.23;;;;;;;15.87;57.69;99070.81;5000135;28;20133;-49
2024/04/07 10:21:09;;;;;;;2.25;1.40;;;;;;;15.76;58.60;99058.19;4999303;28;20053;-51
2024/04/07 10:23:35;;;;;;;6.50;1.90;;;;;;;15.90;58.46;99048.94;4999313;28;20064;-53
2024/04/07 10:26:03;;;;;;;6.40;1.17;;;;;;;15.94;58.89;99068.78;5000539;28;20045;-49
2024/04/07 10:28:50;;;;;;;4.63;1.60;;;;;;;15.88;58.16;99062.06;5012410;28;20054;-51
2024/04/07 10:31:33;;;;;;;5.05;1.52;;;;;;;15.99;58.59;99052.97;4978818;28;20046;-53
2024/04/07 10:33:59;;;;;;;;;;;;;;;16.07;58.80;99061.34;4962973;28;20051;-54
2024/04/07 10:36:25;;;;;;;5.22;1.25;;;;;;;16.13;57.63;99065.44;4997149;28;19921;-54
2024/04/07 10:38:55;;;;;;;4.15;2.15;;;;;;;15.92;58.12;99068.88;4996050;28;20717;-51
2024/04/07 10:41:23;;;;;;;;;;;;;;;15.74;58.45;99059.16;5000458;28;20065;-55
2024/04/07 10:43:49;;;;;;;6.13;1.75;;;;;;;15.80;59.04;99065.00;4991521;28;20137;-53
2024/04/07 10:46:18;;;;;;;5.45;1.23;;;;;;;15.62;58.99;99060.50;5001367;28;20049;-52
2024/04/07 10:48:44;;;;;;;9.52;1.13;;;;;;;15.67;58.75;99075.06;4999096;28;20096;-55
2024/04/07 10:51:12;;;;;;;4.15;0.90;;;;;;;15.80;59.38;99062.38;5005962;28;20058;-53
2024/04/07 10:53:43;;;;;;;4.22;1.55;;;;;;;15.84;59.09;99070.91;4979008;28;20057;-53
2024/04/07 10:56:09;;;;;;;1.95;0.85;;;;;;;15.87;58.95;99065.59;4967372;28;20057;-53
2024/04/07 10:58:35;;;;;;;3.22;1.25;;;;;;;15.93;59.79;99091.47;5003815;28;20486;-51
2024/04/07 11:01:00;;;;;;;4.53;1.15;;;;;;;15.97;60.00;99065.25;4996637;28;20160;-49
2024/04/07 11:03:27;;;;;;;5.28;1.88;;;;;;;16.29;60.32;99070.91;4997384;28;20042;-50
2024/04/07 11:05:55;;;;;;;4.22;1.08;;;;;;;16.52;59.37;99071.69;4996513;28;20045;-50
2024/04/07 11:08:22;;;;;;;7.75;2.10;;;;;;;16.74;60.05;99065.50;4997243;28;20049;-54
2024/04/07 11:10:52;;;;;;;6.78;0.93;;;;;;;16.85;59.44;99062.44;5009801;28;20047;-51
2024/04/07 11:13:20;;;;;;;3.50;0.93;;;;;;;16.87;58.77;99060.56;4990852;28;20403;-52
2024/04/07 11:15:48;;;;;;;2.97;0.80;;;;;;;16.95;58.71;99054.09;4996198;28;20119;-51
2024/04/07 11:18:16;;;;;;;6.65;2.60;;;;;;;17.01;58.06;99073.03;4995616;28;20604;-52
2024/04/07 11:20:42;;;;;;;4.60;1.25;;;;;;;16.64;57.53;99067.66;4984454;28;20049;-56
2024/04/07 11:23:09;;;;;;;2.70;0.60;;;;;;;16.62;57.46;99069.53;4996154;28;20065;-53
2024/04/07 11:25:36;;;;;;;4.88;2.05;;;;;;;16.72;58.42;99064.72;5012771;28;20054;-53
2024/04/07 11:28:03;;;;;;;2.92;1.35;;;;;;;16.83;57.90;99070.34;4997371;28;20054;-55
2024/04/07 11:30:38;;;;;;;2.65;1.23;;;;;;;16.79;57.19;99061.75;5002312;28;20529;-52
2024/04/07 11:33:05;;;;;;;3.75;0.88;;;;;;;16.89;58.29;99059.59;5009119;28;20050;-49